Terminal Aerodrome Forecast
Issued by NWS

Home | Current Version | Previous Version | Text Only | Print | Product List | Glossary On
Versions: 1 2 3 4 5 6 7 8 9 10 11 12 13 14 15 16 17 18
000
FTUS42 KTAE 041720
TAFABY
TAF
KABY 041720Z 0418/0518 24009KT P6SM VCTS BKN040CB
      TEMPO 0418/0422 VRB15G25KT 2SM TSRA BKN025CB
     FM050300 23003KT P6SM SCT250=

USA.gov is the U.S. government's official web portal to all federal, state and local government web resources and services.